Time;durP1;ratioP1;P1;durP2;ratioP2;P2;SDS_P1;SDS_P2;PMS_P1;PMS_P2;Temp;Humidity;BMP_temperature;BMP_pressure;BME280_temperature;BME280_humidity;BME280_pressure;Samples;Min_cycle;Max_cycle;Signal;HPM_P1;HPM_P2
2022/10/12 00:02:24;;;;;;;16.48;10.95;;;;;;;14.43;73.54;97352.00;6228894;23;20027;-90
2022/10/12 00:04:56;;;;;;;19.00;12.32;;;;;;;14.35;73.21;97354.72;6231513;23;20065;-90
2022/10/12 00:07:26;;;;;;;20.65;10.88;;;;;;;14.34;73.80;97349.66;6230271;23;20016;-89
2022/10/12 00:09:59;;;;;;;14.95;11.13;;;;;;;14.34;73.98;97347.03;6229476;23;20417;-88
2022/10/12 00:12:29;;;;;;;20.55;12.40;;;;;;;14.34;73.21;97352.28;6230765;23;20027;-88
2022/10/12 00:15:11;;;;;;;17.80;11.85;;;;;;;14.32;73.18;97357.75;6229428;23;20017;-89
2022/10/12 00:17:49;;;;;;;14.30;9.73;;;;;;;14.31;74.10;97350.84;6229202;23;20024;-89
2022/10/12 00:20:23;;;;;;;14.02;10.82;;;;;;;14.34;74.37;97344.41;6229812;23;20067;-89
2022/10/12 00:22:56;;;;;;;13.02;10.45;;;;;;;14.35;73.91;97357.34;6228676;23;20028;-86
2022/10/12 00:25:27;;;;;;;13.88;10.68;;;;;;;14.35;73.34;97351.31;6228950;23;20043;-87
2022/10/12 00:28:06;;;;;;;13.23;10.93;;;;;;;14.32;73.20;97347.25;6228787;23;20016;-83
2022/10/12 00:30:41;;;;;;;15.75;11.63;;;;;;;14.29;73.05;97347.59;6228445;23;20021;-84
2022/10/12 00:33:19;;;;;;;15.82;11.52;;;;;;;14.25;73.10;97343.72;6229174;23;20039;-83
2022/10/12 00:35:53;;;;;;;15.90;10.45;;;;;;;14.25;73.54;97343.72;6228558;23;20047;-83
2022/10/12 00:38:23;;;;;;;17.98;9.88;;;;;;;14.26;73.97;97344.56;6226942;23;20020;-86
2022/10/12 00:40:54;;;;;;;15.82;11.18;;;;;;;14.28;74.12;97340.75;6229436;23;20024;-85
2022/10/12 00:43:33;;;;;;;11.90;9.57;;;;;;;14.29;74.24;97342.34;6228800;23;20036;-87
2022/10/12 00:46:11;;;;;;;14.05;10.10;;;;;;;14.31;73.85;97350.03;6227725;23;20080;-87
2022/10/12 00:48:41;;;;;;;13.13;10.23;;;;;;;14.32;73.93;97346.41;6231108;23;20072;-87
2022/10/12 00:51:10;;;;;;;13.48;10.18;;;;;;;14.31;73.96;97342.97;6231628;23;20016;-88
2022/10/12 00:53:43;;;;;;;11.48;9.82;;;;;;;14.30;73.67;97336.13;6231036;23;20027;-91
2022/10/12 00:56:18;;;;;;;16.33;11.95;;;;;;;14.25;73.12;97333.22;6231163;23;20436;-86
2022/10/12 00:58:50;;;;;;;14.35;10.05;;;;;;;14.20;73.30;97340.84;6229238;23;20028;-88
2022/10/12 01:01:22;;;;;;;16.42;11.65;;;;;;;14.17;73.39;97339.41;6230248;23;20040;-85
2022/10/12 01:03:55;;;;;;;13.50;10.10;;;;;;;14.17;73.55;97336.00;6228686;23;20021;-86
2022/10/12 01:06:29;;;;;;;14.07;11.73;;;;;;;14.13;72.76;97339.97;6228097;23;20020;-85
2022/10/12 01:08:58;;;;;;;25.75;11.82;;;;;;;14.09;72.93;97339.53;6227513;23;20039;-86
2022/10/12 01:11:28;;;;;;;20.42;12.60;;;;;;;14.06;73.05;97336.44;6227383;23;20070;-82
2022/10/12 01:13:57;;;;;;;18.50;11.73;;;;;;;13.98;72.89;97332.94;6226409;23;20020;-81
2022/10/12 01:16:38;;;;;;;14.52;10.93;;;;;;;13.94;73.28;97330.88;6225293;23;20023;-88
2022/10/12 01:19:33;;;;;;;15.18;11.60;;;;;;;13.89;73.49;97328.81;6225526;23;20027;-85
2022/10/12 01:22:09;;;;;;;15.50;11.38;;;;;;;13.88;74.00;97332.44;6224436;23;20027;-83
2022/10/12 01:24:54;;;;;;;18.73;11.30;;;;;;;13.90;73.93;97325.19;6224967;23;20017;-87
2022/10/12 01:27:46;;;;;;;13.93;11.57;;;;;;;13.91;73.59;97318.97;6225034;23;20078;-88
2022/10/12 01:30:21;;;;;;;17.35;10.93;;;;;;;13.91;73.26;97318.97;6217895;23;20071;-82
2022/10/12 01:33:12;;;;;;;15.15;11.20;;;;;;;13.88;73.55;97316.69;6223183;23;20384;-80
2022/10/12 01:35:50;;;;;;;16.17;12.38;;;;;;;13.86;73.18;97318.69;6223308;23;20400;-84
2022/10/12 01:38:29;;;;;;;13.60;11.27;;;;;;;13.85;74.35;97319.69;6223424;23;20091;-85
2022/10/12 01:41:04;;;;;;;12.32;9.77;;;;;;;13.84;74.38;97315.47;6220770;23;20071;-85
2022/10/12 01:43:35;;;;;;;15.75;10.38;;;;;;;13.87;74.28;97317.69;6229772;23;20055;-89
2022/10/12 01:46:41;;;;;;;15.48;10.75;;;;;;;13.81;73.27;97315.81;6230189;23;20016;-89
2022/10/12 01:49:17;;;;;;;15.45;11.07;;;;;;;13.76;73.47;97324.22;6229297;23;20085;-89
2022/10/12 01:52:16;;;;;;;13.98;10.38;;;;;;;13.75;74.37;97314.75;6228698;23;20017;-88
2022/10/12 01:55:01;;;;;;;13.70;10.48;;;;;;;13.76;74.30;97323.44;6221295;23;20013;-88
2022/10/12 01:57:40;;;;;;;17.20;11.43;;;;;;;13.71;73.05;97315.28;6228391;23;20051;-88
2022/10/12 02:00:11;;;;;;;17.52;11.82;;;;;;;13.62;73.29;97321.63;6229811;23;20027;-87
2022/10/12 02:02:52;;;;;;;16.20;11.07;;;;;;;13.58;74.08;97314.16;6226456;23;20095;-86
2022/10/12 02:05:31;;;;;;;19.85;12.00;;;;;;;13.57;73.93;97320.38;6224106;23;20020;-83
2022/10/12 02:08:06;;;;;;;14.07;11.52;;;;;;;13.55;73.67;97316.31;6224486;23;20023;-89
2022/10/12 02:10:39;;;;;;;14.88;11.05;;;;;;;13.50;73.54;97316.84;6223213;23;20077;-87
2022/10/12 02:13:13;;;;;;;15.60;10.60;;;;;;;13.49;73.87;97317.03;6224249;23;20023;-89
2022/10/12 02:15:44;;;;;;;13.77;11.30;;;;;;;13.51;74.20;97321.13;6224432;23;20092;-88
2022/10/12 02:18:18;;;;;;;18.30;12.07;;;;;;;13.46;73.47;97318.22;6224289;23;20071;-85
2022/10/12 02:20:50;;;;;;;17.13;11.88;;;;;;;13.44;73.42;97312.34;6226125;23;20025;-85
2022/10/12 02:23:19;;;;;;;16.83;13.68;;;;;;;13.41;73.47;97309.28;6226122;23;20032;-85
2022/10/12 02:25:50;;;;;;;16.58;13.88;;;;;;;13.38;73.63;97310.44;6225234;23;20068;-89
2022/10/12 02:28:22;;;;;;;20.73;14.52;;;;;;;13.33;73.29;97312.81;6224130;23;20033;-83
2022/10/12 02:30:57;;;;;;;18.92;14.43;;;;;;;13.28;73.53;97310.72;6224303;23;20020;-86
2022/10/12 02:33:31;;;;;;;18.10;14.43;;;;;;;13.24;73.63;97317.28;6224007;23;20023;-88
2022/10/12 02:36:06;;;;;;;16.88;12.35;;;;;;;13.24;74.21;97313.88;6223061;23;20013;-84
2022/10/12 02:38:38;;;;;;;17.38;11.55;;;;;;;13.26;74.02;97310.06;6223003;23;20036;-81
2022/10/12 02:41:12;;;;;;;16.30;13.07;;;;;;;13.27;74.04;97308.25;6223752;23;20074;-83
2022/10/12 03:13:56;;;;;;;18.80;13.95;;;;;;;13.09;74.74;97283.22;6268140;22;20018;-86
2022/10/12 03:17:20;;;;;;;22.35;15.63;;;;;;;13.12;73.89;97288.13;6184620;23;20049;-84
2022/10/12 03:29:05;;;;;;;19.90;14.82;;;;;;;13.09;73.99;97291.09;6181517;23;20041;-85
2022/10/12 07:49:18;;;;;;;18.15;13.65;;;;;;;14.41;73.08;97363.69;6221075;22;20039;-82
2022/10/12 07:51:48;;;;;;;18.98;14.02;;;;;;;14.75;72.25;97360.38;6275948;22;20031;-83
2022/10/12 08:02:23;;;;;;;18.15;12.02;;;;;;;16.32;66.94;97356.38;6256065;22;20011;-82
2022/10/12 08:04:56;;;;;;;16.83;11.98;;;;;;;16.58;66.34;97362.69;6276080;22;20004;-82
2022/10/12 16:29:36;;;;;;;12.15;9.15;;;;;;;16.54;60.20;97243.75;6197927;22;20007;-82
2022/10/12 16:32:05;;;;;;;14.10;9.10;;;;;;;16.46;60.33;97244.78;6277069;23;20064;-82
2022/10/12 16:34:34;;;;;;;15.00;9.00;;;;;;;16.42;60.70;97246.22;6276743;23;20071;-82
2022/10/12 17:15:13;;;;;;;18.55;9.85;;;;;;;15.55;63.30;97263.63;6210144;22;19921;-84
2022/10/12 17:17:46;;;;;;;13.68;9.07;;;;;;;15.55;63.14;97266.25;6252164;23;20004;-82
2022/10/12 17:27:17;;;;;;;26.70;12.68;;;;;;;15.41;63.61;97273.28;6276361;23;20008;-82
